sensor_id;sensor_type;location;lat;lon;timestamp;temperature;humidity
46159;DHT22;31888;44.512;26.104;2023-02-28T00:00:08;2.90;99.90
46159;DHT22;31888;44.512;26.104;2023-02-28T00:02:33;3.00;99.90
46159;DHT22;31888;44.512;26.104;2023-02-28T00:04:58;3.00;99.90
46159;DHT22;31888;44.512;26.104;2023-02-28T00:07:27;3.00;99.90
46159;DHT22;31888;44.512;26.104;2023-02-28T00:09:52;3.00;99.90
46159;DHT22;31888;44.512;26.104;2023-02-28T00:12:16;3.00;99.90
46159;DHT22;31888;44.512;26.104;2023-02-28T00:14:41;3.00;99.90
46159;DHT22;31888;44.512;26.104;2023-02-28T00:17:05;3.00;99.90
46159;DHT22;31888;44.512;26.104;2023-02-28T00:19:30;3.00;99.90
46159;DHT22;31888;44.512;26.104;2023-02-28T00:21:54;3.00;99.90
46159;DHT22;31888;44.512;26.104;2023-02-28T00:24:20;3.10;99.90
46159;DHT22;31888;44.512;26.104;2023-02-28T00:26:45;3.00;99.90
46159;DHT22;31888;44.512;26.104;2023-02-28T00:29:10;3.00;99.90
46159;DHT22;31888;44.512;26.104;2023-02-28T00:31:34;3.10;99.90
46159;DHT22;31888;44.512;26.104;2023-02-28T00:33:59;3.00;99.90
46159;DHT22;31888;44.512;26.104;2023-02-28T00:36:24;3.00;99.90
46159;DHT22;31888;44.512;26.104;2023-02-28T00:38:48;3.00;99.90
46159;DHT22;31888;44.512;26.104;2023-02-28T00:41:14;3.00;99.90
46159;DHT22;31888;44.512;26.104;2023-02-28T00:43:39;3.00;99.90
46159;DHT22;31888;44.512;26.104;2023-02-28T00:46:04;3.10;99.90
46159;DHT22;31888;44.512;26.104;2023-02-28T00:48:29;3.10;99.90
46159;DHT22;31888;44.512;26.104;2023-02-28T00:50:53;3.10;99.90
46159;DHT22;31888;44.512;26.104;2023-02-28T00:53:18;3.10;99.90
46159;DHT22;31888;44.512;26.104;2023-02-28T00:55:42;3.10;99.90
46159;DHT22;31888;44.512;26.104;2023-02-28T00:58:11;3.00;99.90
46159;DHT22;31888;44.512;26.104;2023-02-28T01:00:35;3.10;99.90
46159;DHT22;31888;44.512;26.104;2023-02-28T01:03:00;3.10;99.90
46159;DHT22;31888;44.512;26.104;2023-02-28T01:05:24;3.10;99.90
46159;DHT22;31888;44.512;26.104;2023-02-28T01:07:49;3.00;99.90
46159;DHT22;31888;44.512;26.104;2023-02-28T01:10:13;3.00;99.90
46159;DHT22;31888;44.512;26.104;2023-02-28T01:12:37;3.10;99.90
46159;DHT22;31888;44.512;26.104;2023-02-28T01:15:06;3.10;99.90
46159;DHT22;31888;44.512;26.104;2023-02-28T01:17:30;3.10;99.90
46159;DHT22;31888;44.512;26.104;2023-02-28T01:19:56;3.00;99.90
46159;DHT22;31888;44.512;26.104;2023-02-28T01:22:20;3.00;99.90
46159;DHT22;31888;44.512;26.104;2023-02-28T01:24:45;3.00;99.90
46159;DHT22;31888;44.512;26.104;2023-02-28T01:27:10;3.10;99.90
46159;DHT22;31888;44.512;26.104;2023-02-28T01:29:34;3.10;99.90
46159;DHT22;31888;44.512;26.104;2023-02-28T01:32:00;3.10;99.90
46159;DHT22;31888;44.512;26.104;2023-02-28T01:34:25;3.10;99.90
46159;DHT22;31888;44.512;26.104;2023-02-28T01:36:49;3.10;99.90
46159;DHT22;31888;44.512;26.104;2023-02-28T01:39:14;3.00;99.90
46159;DHT22;31888;44.512;26.104;2023-02-28T01:41:39;3.00;99.90
46159;DHT22;31888;44.512;26.104;2023-02-28T01:44:05;3.00;99.90
46159;DHT22;31888;44.512;26.104;2023-02-28T01:46:36;3.00;99.90
46159;DHT22;31888;44.512;26.104;2023-02-28T01:49:08;3.00;99.90
46159;DHT22;31888;44.512;26.104;2023-02-28T01:51:39;3.00;99.90
46159;DHT22;31888;44.512;26.104;2023-02-28T01:54:10;3.10;99.90
46159;DHT22;31888;44.512;26.104;2023-02-28T01:56:37;3.10;99.90
46159;DHT22;31888;44.512;26.104;2023-02-28T01:59:02;3.10;99.90
46159;DHT22;31888;44.512;26.104;2023-02-28T02:01:27;3.00;99.90
46159;DHT22;31888;44.512;26.104;2023-02-28T02:03:59;3.10;99.90
46159;DHT22;31888;44.512;26.104;2023-02-28T02:06:29;3.10;99.90
46159;DHT22;31888;44.512;26.104;2023-02-28T02:08:54;3.10;99.90
46159;DHT22;31888;44.512;26.104;2023-02-28T02:11:20;3.10;99.90
46159;DHT22;31888;44.512;26.104;2023-02-28T02:13:56;3.00;99.90
46159;DHT22;31888;44.512;26.104;2023-02-28T02:16:35;2.90;99.90
46159;DHT22;31888;44.512;26.104;2023-02-28T02:19:19;2.90;99.90
46159;DHT22;31888;44.512;26.104;2023-02-28T02:22:09;3.00;99.90
46159;DHT22;31888;44.512;26.104;2023-02-28T02:25:02;3.00;99.90
46159;DHT22;31888;44.512;26.104;2023-02-28T02:27:57;2.90;99.90
46159;DHT22;31888;44.512;26.104;2023-02-28T02:30:46;2.90;99.90
46159;DHT22;31888;44.512;26.104;2023-02-28T02:36:19;2.90;99.90
46159;DHT22;31888;44.512;26.104;2023-02-28T02:38:48;2.90;99.90
46159;DHT22;31888;44.512;26.104;2023-02-28T02:41:18;2.90;99.90
46159;DHT22;31888;44.512;26.104;2023-02-28T02:43:47;2.90;99.90
46159;DHT22;31888;44.512;26.104;2023-02-28T02:46:17;2.80;99.90
46159;DHT22;31888;44.512;26.104;2023-02-28T02:48:44;2.80;99.90
46159;DHT22;31888;44.512;26.104;2023-02-28T02:51:12;2.90;99.90
46159;DHT22;31888;44.512;26.104;2023-02-28T02:53:42;2.80;99.90
46159;DHT22;31888;44.512;26.104;2023-02-28T02:56:08;2.90;99.90
46159;DHT22;31888;44.512;26.104;2023-02-28T02:58:40;2.80;99.90
46159;DHT22;31888;44.512;26.104;2023-02-28T03:01:08;2.70;99.90
46159;DHT22;31888;44.512;26.104;2023-02-28T03:03:34;2.70;99.90
46159;DHT22;31888;44.512;26.104;2023-02-28T03:06:02;2.80;99.90
46159;DHT22;31888;44.512;26.104;2023-02-28T03:08:31;2.80;99.90
46159;DHT22;31888;44.512;26.104;2023-02-28T03:10:58;2.80;99.90
46159;DHT22;31888;44.512;26.104;2023-02-28T03:16:35;2.70;99.90
46159;DHT22;31888;44.512;26.104;2023-02-28T03:19:23;2.70;99.90
46159;DHT22;31888;44.512;26.104;2023-02-28T03:21:58;2.80;99.90
46159;DHT22;31888;44.512;26.104;2023-02-28T03:24:30;2.80;99.90
46159;DHT22;31888;44.512;26.104;2023-02-28T03:27:07;2.70;99.90
46159;DHT22;31888;44.512;26.104;2023-02-28T03:29:36;2.70;99.90
46159;DHT22;31888;44.512;26.104;2023-02-28T03:32:05;2.80;99.90
46159;DHT22;31888;44.512;26.104;2023-02-28T03:34:40;2.80;99.90
46159;DHT22;31888;44.512;26.104;2023-02-28T03:37:11;2.80;99.90
46159;DHT22;31888;44.512;26.104;2023-02-28T03:39:39;2.80;99.90
46159;DHT22;31888;44.512;26.104;2023-02-28T03:42:09;2.70;99.90
46159;DHT22;31888;44.512;26.104;2023-02-28T03:44:39;2.70;99.90
46159;DHT22;31888;44.512;26.104;2023-02-28T03:47:08;2.80;99.90
46159;DHT22;31888;44.512;26.104;2023-02-28T03:49:39;2.70;99.90
46159;DHT22;31888;44.512;26.104;2023-02-28T03:52:07;2.70;99.90
46159;DHT22;31888;44.512;26.104;2023-02-28T03:54:36;2.70;99.90
46159;DHT22;31888;44.512;26.104;2023-02-28T03:57:07;2.70;99.90
46159;DHT22;31888;44.512;26.104;2023-02-28T03:59:37;2.70;99.90
46159;DHT22;31888;44.512;26.104;2023-02-28T04:02:03;2.70;99.90
46159;DHT22;31888;44.512;26.104;2023-02-28T04:04:27;2.70;99.90
46159;DHT22;31888;44.512;26.104;2023-02-28T04:06:52;2.60;99.90
46159;DHT22;31888;44.512;26.104;2023-02-28T04:09:24;2.70;99.90
46159;DHT22;31888;44.512;26.104;2023-02-28T04:11:51;2.70;99.90
46159;DHT22;31888;44.512;26.104;2023-02-28T04:14:18;2.60;99.90
46159;DHT22;31888;44.512;26.104;2023-02-28T04:16:42;2.70;99.90
46159;DHT22;31888;44.512;26.104;2023-02-28T04:19:09;2.70;99.90
46159;DHT22;31888;44.512;26.104;2023-02-28T04:21:35;2.60;99.90
46159;DHT22;31888;44.512;26.104;2023-02-28T04:24:02;2.60;99.90
46159;DHT22;31888;44.512;26.104;2023-02-28T04:26:29;2.60;99.90
46159;DHT22;31888;44.512;26.104;2023-02-28T04:28:54;2.60;99.90
46159;DHT22;31888;44.512;26.104;2023-02-28T04:31:19;2.60;99.90
46159;DHT22;31888;44.512;26.104;2023-02-28T04:33:44;2.60;99.90
46159;DHT22;31888;44.512;26.104;2023-02-28T04:36:09;2.60;99.90
46159;DHT22;31888;44.512;26.104;2023-02-28T04:38:34;2.60;99.90
46159;DHT22;31888;44.512;26.104;2023-02-28T04:41:00;2.60;99.90
46159;DHT22;31888;44.512;26.104;2023-02-28T04:43:26;2.60;99.90
46159;DHT22;31888;44.512;26.104;2023-02-28T04:45:50;2.50;99.90
46159;DHT22;31888;44.512;26.104;2023-02-28T04:48:16;2.60;99.90
46159;DHT22;31888;44.512;26.104;2023-02-28T04:50:44;2.60;99.90
46159;DHT22;31888;44.512;26.104;2023-02-28T04:53:10;2.70;99.90
46159;DHT22;31888;44.512;26.104;2023-02-28T04:55:35;2.70;99.90
46159;DHT22;31888;44.512;26.104;2023-02-28T04:57:59;2.70;99.90
46159;DHT22;31888;44.512;26.104;2023-02-28T05:00:24;2.70;99.90
46159;DHT22;31888;44.512;26.104;2023-02-28T05:02:48;2.60;99.90
46159;DHT22;31888;44.512;26.104;2023-02-28T05:05:14;2.60;99.90
46159;DHT22;31888;44.512;26.104;2023-02-28T05:07:41;2.60;99.90
46159;DHT22;31888;44.512;26.104;2023-02-28T05:10:06;2.60;99.90
46159;DHT22;31888;44.512;26.104;2023-02-28T05:12:33;2.60;99.90
46159;DHT22;31888;44.512;26.104;2023-02-28T05:14:57;2.60;99.90
46159;DHT22;31888;44.512;26.104;2023-02-28T05:17:21;2.60;99.90
46159;DHT22;31888;44.512;26.104;2023-02-28T05:19:46;2.70;99.90
46159;DHT22;31888;44.512;26.104;2023-02-28T05:22:15;2.60;99.90
46159;DHT22;31888;44.512;26.104;2023-02-28T05:24:40;2.60;99.90
46159;DHT22;31888;44.512;26.104;2023-02-28T05:27:05;2.60;99.90
46159;DHT22;31888;44.512;26.104;2023-02-28T05:29:30;2.70;99.90
46159;DHT22;31888;44.512;26.104;2023-02-28T05:31:54;2.70;99.90
46159;DHT22;31888;44.512;26.104;2023-02-28T05:34:19;2.60;99.90
46159;DHT22;31888;44.512;26.104;2023-02-28T05:36:43;2.60;99.90
46159;DHT22;31888;44.512;26.104;2023-02-28T05:39:09;2.60;99.90
46159;DHT22;31888;44.512;26.104;2023-02-28T05:41:36;2.60;99.90
46159;DHT22;31888;44.512;26.104;2023-02-28T05:44:00;2.70;99.90
46159;DHT22;31888;44.512;26.104;2023-02-28T05:46:25;2.70;99.90
46159;DHT22;31888;44.512;26.104;2023-02-28T05:48:49;2.70;99.90
46159;DHT22;31888;44.512;26.104;2023-02-28T05:51:14;2.70;99.90
46159;DHT22;31888;44.512;26.104;2023-02-28T05:53:40;2.70;99.90
46159;DHT22;31888;44.512;26.104;2023-02-28T05:56:06;2.70;99.90
46159;DHT22;31888;44.512;26.104;2023-02-28T05:58:31;2.70;99.90
46159;DHT22;31888;44.512;26.104;2023-02-28T06:00:55;2.80;99.90
46159;DHT22;31888;44.512;26.104;2023-02-28T06:03:20;2.80;99.90
46159;DHT22;31888;44.512;26.104;2023-02-28T06:05:45;2.80;99.90
46159;DHT22;31888;44.512;26.104;2023-02-28T06:08:09;2.80;99.90
46159;DHT22;31888;44.512;26.104;2023-02-28T06:10:34;2.80;99.90
46159;DHT22;31888;44.512;26.104;2023-02-28T06:13:01;2.80;99.90
46159;DHT22;31888;44.512;26.104;2023-02-28T06:15:26;2.80;99.90
46159;DHT22;31888;44.512;26.104;2023-02-28T06:17:50;2.80;99.90
46159;DHT22;31888;44.512;26.104;2023-02-28T06:20:15;2.80;99.90
46159;DHT22;31888;44.512;26.104;2023-02-28T06:22:40;2.90;99.90
46159;DHT22;31888;44.512;26.104;2023-02-28T06:25:07;2.90;99.90
46159;DHT22;31888;44.512;26.104;2023-02-28T06:27:31;2.90;99.90
46159;DHT22;31888;44.512;26.104;2023-02-28T06:29:57;2.90;99.90
46159;DHT22;31888;44.512;26.104;2023-02-28T06:32:22;2.90;99.90
46159;DHT22;31888;44.512;26.104;2023-02-28T06:34:47;3.00;99.90
46159;DHT22;31888;44.512;26.104;2023-02-28T06:37:11;3.10;99.90
46159;DHT22;31888;44.512;26.104;2023-02-28T06:39:36;3.10;99.90
46159;DHT22;31888;44.512;26.104;2023-02-28T06:42:01;3.20;99.90
46159;DHT22;31888;44.512;26.104;2023-02-28T06:44:26;3.30;99.90
46159;DHT22;31888;44.512;26.104;2023-02-28T06:46:57;3.30;99.90
46159;DHT22;31888;44.512;26.104;2023-02-28T06:49:21;3.20;99.90
46159;DHT22;31888;44.512;26.104;2023-02-28T06:51:46;3.30;99.90
46159;DHT22;31888;44.512;26.104;2023-02-28T06:54:11;3.30;99.90
46159;DHT22;31888;44.512;26.104;2023-02-28T06:56:36;3.30;99.90
46159;DHT22;31888;44.512;26.104;2023-02-28T06:59:01;3.20;99.90
46159;DHT22;31888;44.512;26.104;2023-02-28T07:01:26;3.10;99.90
46159;DHT22;31888;44.512;26.104;2023-02-28T07:03:53;3.00;99.90
46159;DHT22;31888;44.512;26.104;2023-02-28T07:06:18;3.10;99.90
46159;DHT22;31888;44.512;26.104;2023-02-28T07:08:42;3.10;99.90
46159;DHT22;31888;44.512;26.104;2023-02-28T07:11:07;3.10;99.90
46159;DHT22;31888;44.512;26.104;2023-02-28T07:13:32;3.10;99.90
46159;DHT22;31888;44.512;26.104;2023-02-28T07:15:59;3.10;99.90
46159;DHT22;31888;44.512;26.104;2023-02-28T07:18:24;3.10;99.90
46159;DHT22;31888;44.512;26.104;2023-02-28T07:20:50;3.20;99.90
46159;DHT22;31888;44.512;26.104;2023-02-28T07:23:15;3.10;99.90
46159;DHT22;31888;44.512;26.104;2023-02-28T07:25:39;3.10;99.90
46159;DHT22;31888;44.512;26.104;2023-02-28T07:28:04;3.20;99.90
46159;DHT22;31888;44.512;26.104;2023-02-28T07:30:28;3.20;99.90
46159;DHT22;31888;44.512;26.104;2023-02-28T07:32:53;3.20;99.90
46159;DHT22;31888;44.512;26.104;2023-02-28T07:35:19;3.20;99.90
46159;DHT22;31888;44.512;26.104;2023-02-28T07:37:45;3.20;99.90
46159;DHT22;31888;44.512;26.104;2023-02-28T07:40:11;3.20;99.90
46159;DHT22;31888;44.512;26.104;2023-02-28T07:42:36;3.20;99.90
46159;DHT22;31888;44.512;26.104;2023-02-28T07:45:01;3.10;99.90
46159;DHT22;31888;44.512;26.104;2023-02-28T07:47:26;3.20;99.90
46159;DHT22;31888;44.512;26.104;2023-02-28T07:49:50;3.20;99.90
46159;DHT22;31888;44.512;26.104;2023-02-28T07:52:15;3.20;99.90
46159;DHT22;31888;44.512;26.104;2023-02-28T07:54:41;3.20;99.90
46159;DHT22;31888;44.512;26.104;2023-02-28T07:57:06;3.10;99.90
46159;DHT22;31888;44.512;26.104;2023-02-28T07:59:31;3.10;99.90
46159;DHT22;31888;44.512;26.104;2023-02-28T08:01:57;3.10;99.90
46159;DHT22;31888;44.512;26.104;2023-02-28T08:04:22;3.10;99.90
46159;DHT22;31888;44.512;26.104;2023-02-28T08:06:46;3.10;99.90
46159;DHT22;31888;44.512;26.104;2023-02-28T08:09:11;3.20;99.90
46159;DHT22;31888;44.512;26.104;2023-02-28T08:11:37;3.20;99.90
46159;DHT22;31888;44.512;26.104;2023-02-28T08:14:03;3.20;99.90
46159;DHT22;31888;44.512;26.104;2023-02-28T08:16:27;3.30;99.90
46159;DHT22;31888;44.512;26.104;2023-02-28T08:18:52;3.30;99.90
46159;DHT22;31888;44.512;26.104;2023-02-28T08:21:18;3.30;99.90
46159;DHT22;31888;44.512;26.104;2023-02-28T08:23:43;3.20;99.90
46159;DHT22;31888;44.512;26.104;2023-02-28T08:26:07;3.20;99.90
46159;DHT22;31888;44.512;26.104;2023-02-28T08:28:33;3.20;99.90
46159;DHT22;31888;44.512;26.104;2023-02-28T08:30:58;3.40;99.90
46159;DHT22;31888;44.512;26.104;2023-02-28T08:33:23;3.40;99.90
46159;DHT22;31888;44.512;26.104;2023-02-28T08:35:48;3.30;99.90
46159;DHT22;31888;44.512;26.104;2023-02-28T08:38:13;3.20;99.90
46159;DHT22;31888;44.512;26.104;2023-02-28T08:40:37;3.30;99.90
46159;DHT22;31888;44.512;26.104;2023-02-28T08:43:02;3.40;99.90
46159;DHT22;31888;44.512;26.104;2023-02-28T08:45:27;3.40;99.90
46159;DHT22;31888;44.512;26.104;2023-02-28T08:47:53;3.50;99.90
46159;DHT22;31888;44.512;26.104;2023-02-28T08:50:18;3.50;99.90
46159;DHT22;31888;44.512;26.104;2023-02-28T08:52:43;3.50;99.90
46159;DHT22;31888;44.512;26.104;2023-02-28T08:55:08;3.60;99.90
46159;DHT22;31888;44.512;26.104;2023-02-28T08:57:34;3.50;99.90
46159;DHT22;31888;44.512;26.104;2023-02-28T08:59:59;3.50;99.90
46159;DHT22;31888;44.512;26.104;2023-02-28T09:02:27;3.60;99.90
46159;DHT22;31888;44.512;26.104;2023-02-28T09:04:51;3.60;99.90
46159;DHT22;31888;44.512;26.104;2023-02-28T09:07:16;3.50;99.90
46159;DHT22;31888;44.512;26.104;2023-02-28T09:09:40;3.50;99.90
46159;DHT22;31888;44.512;26.104;2023-02-28T09:12:16;3.50;99.90
46159;DHT22;31888;44.512;26.104;2023-02-28T09:14:41;3.50;99.90
46159;DHT22;31888;44.512;26.104;2023-02-28T09:17:06;3.50;99.90
46159;DHT22;31888;44.512;26.104;2023-02-28T09:19:33;3.50;99.90
46159;DHT22;31888;44.512;26.104;2023-02-28T09:21:57;3.50;99.90
46159;DHT22;31888;44.512;26.104;2023-02-28T09:24:21;3.50;99.90
46159;DHT22;31888;44.512;26.104;2023-02-28T09:26:46;3.50;99.90
46159;DHT22;31888;44.512;26.104;2023-02-28T09:29:26;3.60;99.90
46159;DHT22;31888;44.512;26.104;2023-02-28T09:31:50;3.50;99.90
46159;DHT22;31888;44.512;26.104;2023-02-28T09:34:15;3.50;99.90
46159;DHT22;31888;44.512;26.104;2023-02-28T09:36:41;3.50;99.90
46159;DHT22;31888;44.512;26.104;2023-02-28T09:39:08;3.60;99.90
46159;DHT22;31888;44.512;26.104;2023-02-28T09:41:38;3.70;99.90
46159;DHT22;31888;44.512;26.104;2023-02-28T09:44:13;3.80;99.90
46159;DHT22;31888;44.512;26.104;2023-02-28T09:46:43;3.90;99.90
46159;DHT22;31888;44.512;26.104;2023-02-28T09:49:14;3.80;99.90
46159;DHT22;31888;44.512;26.104;2023-02-28T09:51:50;3.70;99.90
46159;DHT22;31888;44.512;26.104;2023-02-28T09:54:16;3.80;99.90
46159;DHT22;31888;44.512;26.104;2023-02-28T09:56:42;3.70;99.90
46159;DHT22;31888;44.512;26.104;2023-02-28T09:59:16;3.70;99.90
46159;DHT22;31888;44.512;26.104;2023-02-28T10:01:47;3.70;99.90
46159;DHT22;31888;44.512;26.104;2023-02-28T10:04:22;3.70;99.90
46159;DHT22;31888;44.512;26.104;2023-02-28T10:06:52;3.80;99.90
46159;DHT22;31888;44.512;26.104;2023-02-28T10:09:19;3.70;99.90
46159;DHT22;31888;44.512;26.104;2023-02-28T10:11:47;3.80;99.90
46159;DHT22;31888;44.512;26.104;2023-02-28T10:14:15;3.80;99.90
46159;DHT22;31888;44.512;26.104;2023-02-28T10:16:44;3.90;99.90
46159;DHT22;31888;44.512;26.104;2023-02-28T10:19:18;3.90;99.90
46159;DHT22;31888;44.512;26.104;2023-02-28T10:21:48;4.00;99.90
46159;DHT22;31888;44.512;26.104;2023-02-28T10:24:21;3.80;99.90
46159;DHT22;31888;44.512;26.104;2023-02-28T10:26:48;3.80;99.90
46159;DHT22;31888;44.512;26.104;2023-02-28T10:29:12;3.90;99.90
46159;DHT22;31888;44.512;26.104;2023-02-28T10:31:38;3.90;99.90
46159;DHT22;31888;44.512;26.104;2023-02-28T10:34:03;3.90;99.90
46159;DHT22;31888;44.512;26.104;2023-02-28T10:36:29;4.00;99.90
46159;DHT22;31888;44.512;26.104;2023-02-28T10:38:58;4.00;99.90
46159;DHT22;31888;44.512;26.104;2023-02-28T10:41:32;4.10;99.90
46159;DHT22;31888;44.512;26.104;2023-02-28T10:44:19;4.20;99.90
46159;DHT22;31888;44.512;26.104;2023-02-28T10:46:45;4.10;99.90
46159;DHT22;31888;44.512;26.104;2023-02-28T10:49:17;4.20;99.90
46159;DHT22;31888;44.512;26.104;2023-02-28T10:51:42;4.20;99.90
46159;DHT22;31888;44.512;26.104;2023-02-28T10:54:15;4.20;99.90
46159;DHT22;31888;44.512;26.104;2023-02-28T10:56:41;4.20;99.90
46159;DHT22;31888;44.512;26.104;2023-02-28T10:59:27;4.30;99.90
46159;DHT22;31888;44.512;26.104;2023-02-28T11:01:53;4.10;99.90
46159;DHT22;31888;44.512;26.104;2023-02-28T11:04:19;4.10;99.90
46159;DHT22;31888;44.512;26.104;2023-02-28T11:06:45;4.10;99.90
46159;DHT22;31888;44.512;26.104;2023-02-28T11:09:22;4.10;99.90
46159;DHT22;31888;44.512;26.104;2023-02-28T11:11:49;4.10;99.90
46159;DHT22;31888;44.512;26.104;2023-02-28T11:14:20;4.20;99.90
46159;DHT22;31888;44.512;26.104;2023-02-28T11:16:45;4.20;99.90
46159;DHT22;31888;44.512;26.104;2023-02-28T11:19:19;4.30;99.90
46159;DHT22;31888;44.512;26.104;2023-02-28T11:21:50;4.30;99.90
46159;DHT22;31888;44.512;26.104;2023-02-28T11:24:23;4.20;99.90
46159;DHT22;31888;44.512;26.104;2023-02-28T11:26:50;4.20;99.90
46159;DHT22;31888;44.512;26.104;2023-02-28T11:29:20;4.20;99.90
46159;DHT22;31888;44.512;26.104;2023-02-28T11:32:01;4.20;99.90
46159;DHT22;31888;44.512;26.104;2023-02-28T11:34:27;4.10;99.90
46159;DHT22;31888;44.512;26.104;2023-02-28T11:36:53;4.20;99.90
46159;DHT22;31888;44.512;26.104;2023-02-28T11:39:19;4.30;99.90
46159;DHT22;31888;44.512;26.104;2023-02-28T11:41:58;4.30;99.90
46159;DHT22;31888;44.512;26.104;2023-02-28T11:44:35;4.40;99.90
46159;DHT22;31888;44.512;26.104;2023-02-28T11:47:09;4.40;99.90
46159;DHT22;31888;44.512;26.104;2023-02-28T11:49:44;4.40;99.90
46159;DHT22;31888;44.512;26.104;2023-02-28T11:52:20;4.50;99.90
46159;DHT22;31888;44.512;26.104;2023-02-28T11:54:57;4.50;99.90
46159;DHT22;31888;44.512;26.104;2023-02-28T11:57:37;4.60;99.90
46159;DHT22;31888;44.512;26.104;2023-02-28T12:00:15;4.70;99.90
46159;DHT22;31888;44.512;26.104;2023-02-28T12:02:59;4.70;99.90
46159;DHT22;31888;44.512;26.104;2023-02-28T12:05:31;4.60;99.90
46159;DHT22;31888;44.512;26.104;2023-02-28T12:08:11;4.50;99.90
46159;DHT22;31888;44.512;26.104;2023-02-28T12:10:49;4.60;99.90
46159;DHT22;31888;44.512;26.104;2023-02-28T12:13:22;4.50;99.90
46159;DHT22;31888;44.512;26.104;2023-02-28T12:16:05;4.60;99.90
46159;DHT22;31888;44.512;26.104;2023-02-28T12:18:47;4.60;99.90
46159;DHT22;31888;44.512;26.104;2023-02-28T12:21:18;4.60;99.90
46159;DHT22;31888;44.512;26.104;2023-02-28T12:24:23;4.50;99.90
46159;DHT22;31888;44.512;26.104;2023-02-28T12:26:54;4.40;99.90
46159;DHT22;31888;44.512;26.104;2023-02-28T12:29:24;4.50;99.90
46159;DHT22;31888;44.512;26.104;2023-02-28T12:31:55;4.40;99.90
46159;DHT22;31888;44.512;26.104;2023-02-28T12:34:28;4.40;99.90
46159;DHT22;31888;44.512;26.104;2023-02-28T12:36:56;4.40;99.90
46159;DHT22;31888;44.512;26.104;2023-02-28T12:39:26;4.50;99.90
46159;DHT22;31888;44.512;26.104;2023-02-28T12:41:55;4.50;99.90
46159;DHT22;31888;44.512;26.104;2023-02-28T12:44:26;4.50;99.90
46159;DHT22;31888;44.512;26.104;2023-02-28T12:46:55;4.60;99.90
46159;DHT22;31888;44.512;26.104;2023-02-28T12:49:25;4.60;99.90
46159;DHT22;31888;44.512;26.104;2023-02-28T12:51:53;4.50;99.90
46159;DHT22;31888;44.512;26.104;2023-02-28T12:54:23;4.50;99.90
46159;DHT22;31888;44.512;26.104;2023-02-28T12:56:54;4.50;99.90
46159;DHT22;31888;44.512;26.104;2023-02-28T12:59:27;4.50;99.90
46159;DHT22;31888;44.512;26.104;2023-02-28T13:04:58;4.70;99.90
46159;DHT22;31888;44.512;26.104;2023-02-28T13:10:13;4.70;99.90
46159;DHT22;31888;44.512;26.104;2023-02-28T13:12:48;4.80;99.90
46159;DHT22;31888;44.512;26.104;2023-02-28T13:15:18;4.80;99.90
46159;DHT22;31888;44.512;26.104;2023-02-28T13:17:49;4.90;99.90
46159;DHT22;31888;44.512;26.104;2023-02-28T13:20:17;5.00;99.90
46159;DHT22;31888;44.512;26.104;2023-02-28T13:22:44;5.00;99.90
46159;DHT22;31888;44.512;26.104;2023-02-28T13:31:19;4.80;99.90
46159;DHT22;31888;44.512;26.104;2023-02-28T13:34:05;4.70;99.90
46159;DHT22;31888;44.512;26.104;2023-02-28T13:36:31;4.70;99.90
46159;DHT22;31888;44.512;26.104;2023-02-28T13:38:56;4.70;99.90
46159;DHT22;31888;44.512;26.104;2023-02-28T13:41:47;4.60;99.90
46159;DHT22;31888;44.512;26.104;2023-02-28T13:44:15;4.70;99.90
46159;DHT22;31888;44.512;26.104;2023-02-28T13:47:27;4.70;99.90
46159;DHT22;31888;44.512;26.104;2023-02-28T13:49:52;4.80;99.90
46159;DHT22;31888;44.512;26.104;2023-02-28T13:52:20;4.70;99.90
46159;DHT22;31888;44.512;26.104;2023-02-28T13:55:09;4.80;99.90
46159;DHT22;31888;44.512;26.104;2023-02-28T13:58:00;4.70;99.90
46159;DHT22;31888;44.512;26.104;2023-02-28T14:00:41;4.70;99.90
46159;DHT22;31888;44.512;26.104;2023-02-28T14:03:26;4.60;99.90
46159;DHT22;31888;44.512;26.104;2023-02-28T14:06:20;4.70;99.90
46159;DHT22;31888;44.512;26.104;2023-02-28T14:08:54;4.70;99.90
46159;DHT22;31888;44.512;26.104;2023-02-28T14:11:29;4.70;99.90
46159;DHT22;31888;44.512;26.104;2023-02-28T14:13:54;4.80;99.90
46159;DHT22;31888;44.512;26.104;2023-02-28T14:16:21;4.90;99.90
46159;DHT22;31888;44.512;26.104;2023-02-28T14:18:51;4.90;99.90
46159;DHT22;31888;44.512;26.104;2023-02-28T14:21:21;4.80;99.90
46159;DHT22;31888;44.512;26.104;2023-02-28T14:24:38;4.80;99.90
46159;DHT22;31888;44.512;26.104;2023-02-28T14:27:40;4.90;99.90
46159;DHT22;31888;44.512;26.104;2023-02-28T14:33:00;4.80;99.90
46159;DHT22;31888;44.512;26.104;2023-02-28T14:35:48;4.80;99.90
46159;DHT22;31888;44.512;26.104;2023-02-28T14:38:19;4.70;99.90
46159;DHT22;31888;44.512;26.104;2023-02-28T14:40:49;4.80;99.90
46159;DHT22;31888;44.512;26.104;2023-02-28T14:43:20;4.80;99.90
46159;DHT22;31888;44.512;26.104;2023-02-28T14:45:50;4.80;99.90
46159;DHT22;31888;44.512;26.104;2023-02-28T14:48:16;4.80;99.90
46159;DHT22;31888;44.512;26.104;2023-02-28T14:50:49;4.70;99.90
46159;DHT22;31888;44.512;26.104;2023-02-28T14:53:18;4.70;99.90
46159;DHT22;31888;44.512;26.104;2023-02-28T14:55:44;4.80;99.90
46159;DHT22;31888;44.512;26.104;2023-02-28T14:58:22;4.80;99.90
46159;DHT22;31888;44.512;26.104;2023-02-28T15:00:48;4.80;99.90
46159;DHT22;31888;44.512;26.104;2023-02-28T15:03:19;4.70;99.90
46159;DHT22;31888;44.512;26.104;2023-02-28T15:05:51;4.80;99.90
46159;DHT22;31888;44.512;26.104;2023-02-28T15:08:16;4.80;99.90
46159;DHT22;31888;44.512;26.104;2023-02-28T15:10:44;4.80;99.90
46159;DHT22;31888;44.512;26.104;2023-02-28T15:13:12;4.80;99.90
46159;DHT22;31888;44.512;26.104;2023-02-28T15:15:43;4.80;99.90
46159;DHT22;31888;44.512;26.104;2023-02-28T15:18:30;4.80;99.90
46159;DHT22;31888;44.512;26.104;2023-02-28T15:20:57;4.80;99.90
46159;DHT22;31888;44.512;26.104;2023-02-28T15:23:24;4.80;99.90
46159;DHT22;31888;44.512;26.104;2023-02-28T15:25:49;4.80;99.90
46159;DHT22;31888;44.512;26.104;2023-02-28T15:28:19;4.80;99.90
46159;DHT22;31888;44.512;26.104;2023-02-28T15:30:57;4.80;99.90
46159;DHT22;31888;44.512;26.104;2023-02-28T15:33:25;4.80;99.90
46159;DHT22;31888;44.512;26.104;2023-02-28T15:35:50;4.80;99.90
46159;DHT22;31888;44.512;26.104;2023-02-28T15:38:21;4.80;99.90
46159;DHT22;31888;44.512;26.104;2023-02-28T15:40:50;4.80;99.90
46159;DHT22;31888;44.512;26.104;2023-02-28T15:43:19;4.90;99.90
46159;DHT22;31888;44.512;26.104;2023-02-28T15:45:48;4.80;99.90
46159;DHT22;31888;44.512;26.104;2023-02-28T15:48:17;4.80;99.90
46159;DHT22;31888;44.512;26.104;2023-02-28T15:50:42;4.90;99.90
46159;DHT22;31888;44.512;26.104;2023-02-28T15:53:13;4.90;99.90
46159;DHT22;31888;44.512;26.104;2023-02-28T15:55:39;4.90;99.90
46159;DHT22;31888;44.512;26.104;2023-02-28T15:58:04;4.90;99.90
46159;DHT22;31888;44.512;26.104;2023-02-28T16:00:32;4.90;99.90